createdAt,value
2022-10-01T00:02:06.263Z,13.30
2022-10-01T00:04:37.375Z,13.30
2022-10-01T00:07:09.267Z,13.30
2022-10-01T00:09:36.392Z,13.30
2022-10-01T00:12:03.345Z,13.30
2022-10-01T00:14:30.322Z,13.40
2022-10-01T00:16:57.893Z,13.40
2022-10-01T00:19:24.924Z,13.40
2022-10-01T00:21:51.755Z,13.40
2022-10-01T00:24:18.730Z,13.40
2022-10-01T00:26:45.610Z,13.40
2022-10-01T00:29:15.029Z,13.40
2022-10-01T00:31:42.634Z,13.40
2022-10-01T00:34:13.113Z,13.40
2022-10-01T00:36:42.123Z,13.40
2022-10-01T00:39:11.703Z,13.40
2022-10-01T00:41:38.550Z,13.50
2022-10-01T00:44:36.537Z,13.40
2022-10-01T00:47:19.617Z,13.40
2022-10-01T00:49:48.451Z,13.50
2022-10-01T00:52:22.437Z,13.50
2022-10-01T00:55:02.397Z,13.50
2022-10-01T00:57:29.935Z,13.50
2022-10-01T01:00:02.791Z,13.50
2022-10-01T01:02:29.847Z,13.50
2022-10-01T01:04:56.813Z,13.60
2022-10-01T01:07:23.715Z,13.50
2022-10-01T01:09:53.729Z,13.50
2022-10-01T01:12:33.705Z,13.60
2022-10-01T01:15:28.471Z,13.60
2022-10-01T01:18:20.842Z,13.60
2022-10-01T01:20:51.223Z,13.60
2022-10-01T01:23:18.328Z,13.60
2022-10-01T01:26:17.997Z,13.60
2022-10-01T01:28:52.761Z,13.60
2022-10-01T01:31:33.651Z,13.60
2022-10-01T01:34:05.142Z,13.70
2022-10-01T01:36:37.964Z,13.60
2022-10-01T01:39:11.678Z,13.70
2022-10-01T01:41:49.854Z,13.70
2022-10-01T01:44:24.824Z,13.70
2022-10-01T01:46:56.422Z,13.70
2022-10-01T01:49:24.654Z,13.70
2022-10-01T01:52:03.181Z,13.70
2022-10-01T01:54:30.972Z,13.80
2022-10-01T01:56:58.832Z,13.80
2022-10-01T01:59:27.149Z,13.80
2022-10-01T02:01:54.026Z,13.80
2022-10-01T02:04:36.773Z,13.80
2022-10-01T02:07:35.517Z,13.80
2022-10-01T02:10:45.347Z,13.80
2022-10-01T02:13:47.098Z,13.70
2022-10-01T02:16:48.611Z,13.70
2022-10-01T02:19:29.484Z,13.80
2022-10-01T02:22:05.034Z,13.80
2022-10-01T02:24:58.243Z,13.70
2022-10-01T02:27:29.220Z,13.80
2022-10-01T02:30:01.773Z,13.70
2022-10-01T02:32:31.407Z,13.70
2022-10-01T02:35:01.515Z,13.70
2022-10-01T02:37:28.979Z,13.70
2022-10-01T02:39:58.102Z,13.70
2022-10-01T02:42:28.409Z,13.70
2022-10-01T02:45:02.336Z,13.70
2022-10-01T02:47:44.544Z,13.70
2022-10-01T02:50:13.991Z,13.70
2022-10-01T02:53:02.818Z,13.60
2022-10-01T02:55:38.537Z,13.60
2022-10-01T02:58:07.190Z,13.60
2022-10-01T03:00:34.392Z,13.60
2022-10-01T03:03:01.254Z,13.60
2022-10-01T03:05:28.085Z,13.60
2022-10-01T03:07:55.069Z,13.60
2022-10-01T03:10:21.922Z,13.60
2022-10-01T03:12:48.956Z,13.60
2022-10-01T03:15:21.434Z,13.60
2022-10-01T03:17:53.531Z,13.60
2022-10-01T03:20:21.244Z,13.60
2022-10-01T03:22:48.174Z,13.60
2022-10-01T03:25:16.883Z,13.60
2022-10-01T03:27:43.922Z,13.60
2022-10-01T03:30:11.471Z,13.60
2022-10-01T03:32:38.666Z,13.60
2022-10-01T03:35:06.216Z,13.60
2022-10-01T03:37:33.087Z,13.60
2022-10-01T03:39:59.991Z,13.60
2022-10-01T03:42:26.911Z,13.60
2022-10-01T03:44:53.788Z,13.60
2022-10-01T03:47:22.182Z,13.60
2022-10-01T03:49:49.028Z,13.60
2022-10-01T03:52:15.877Z,13.60
2022-10-01T03:54:42.749Z,13.60
2022-10-01T03:57:09.622Z,13.70
2022-10-01T03:59:36.454Z,13.60
2022-10-01T04:02:03.566Z,13.70
2022-10-01T04:04:30.409Z,13.70
2022-10-01T04:06:57.245Z,13.70
2022-10-01T04:09:24.074Z,13.70
2022-10-01T04:11:50.939Z,13.70
2022-10-01T04:14:17.698Z,13.70
2022-10-01T04:16:44.882Z,13.70
2022-10-01T04:19:11.675Z,13.70
2022-10-01T04:21:39.088Z,13.70
2022-10-01T04:24:06.222Z,13.70
2022-10-01T04:26:33.091Z,13.70
2022-10-01T04:28:59.905Z,13.70
2022-10-01T04:31:27.230Z,13.70
2022-10-01T04:33:57.194Z,13.70
2022-10-01T04:36:25.877Z,13.70
2022-10-01T04:38:59.277Z,13.70
2022-10-01T04:41:30.679Z,13.70
2022-10-01T04:44:01.283Z,13.80
2022-10-01T04:46:30.605Z,13.70
2022-10-01T04:48:57.841Z,13.70
2022-10-01T04:51:24.722Z,13.80
2022-10-01T04:53:51.604Z,13.80
2022-10-01T04:56:18.400Z,13.80
2022-10-01T04:58:48.461Z,13.80
2022-10-01T05:01:15.325Z,13.80
2022-10-01T05:03:42.154Z,13.80
2022-10-01T05:06:09.083Z,13.80
2022-10-01T05:08:37.507Z,13.80
2022-10-01T05:11:04.716Z,13.80
2022-10-01T05:13:32.023Z,13.80
2022-10-01T05:15:59.348Z,13.80
2022-10-01T05:18:26.294Z,13.80
2022-10-01T05:20:53.173Z,13.90
2022-10-01T05:23:20.146Z,13.90
2022-10-01T05:25:47.272Z,13.90
2022-10-01T05:28:21.389Z,13.90
2022-10-01T05:30:49.225Z,13.90
2022-10-01T05:33:16.069Z,13.90
2022-10-01T05:35:43.114Z,13.90
2022-10-01T05:38:10.622Z,13.90
2022-10-01T05:40:37.551Z,13.90
2022-10-01T05:43:04.413Z,14.00
2022-10-01T05:45:32.411Z,14.00
2022-10-01T05:48:02.683Z,14.00
2022-10-01T05:50:32.272Z,14.00
2022-10-01T05:53:00.592Z,14.00
2022-10-01T05:55:34.358Z,14.00
2022-10-01T05:58:07.199Z,14.00
2022-10-01T06:00:35.858Z,14.00
2022-10-01T06:03:05.225Z,14.00
2022-10-01T06:05:34.651Z,14.00
2022-10-01T06:08:05.478Z,14.00
2022-10-01T06:10:32.416Z,14.00
2022-10-01T06:13:06.764Z,14.00
2022-10-01T06:15:37.892Z,14.10
2022-10-01T06:18:09.970Z,14.10
2022-10-01T06:20:37.645Z,14.10
2022-10-01T06:23:07.384Z,14.10
2022-10-01T06:25:36.348Z,14.10
2022-10-01T06:28:05.787Z,14.10
2022-10-01T06:30:36.191Z,14.10
2022-10-01T06:33:10.776Z,14.10
2022-10-01T06:35:43.337Z,14.10
2022-10-01T06:38:11.029Z,14.10
2022-10-01T06:40:39.182Z,14.10
2022-10-01T06:43:10.251Z,14.10
2022-10-01T06:45:42.362Z,14.20
2022-10-01T06:48:14.772Z,14.20
2022-10-01T06:50:44.139Z,14.20
2022-10-01T06:53:12.936Z,14.20
2022-10-01T06:55:40.616Z,14.20
2022-10-01T06:58:20.923Z,14.20
2022-10-01T07:00:49.612Z,14.30
2022-10-01T07:03:19.933Z,14.30
2022-10-01T07:05:47.747Z,14.30
2022-10-01T07:08:15.206Z,14.30
2022-10-01T07:10:44.037Z,14.30
2022-10-01T07:13:16.005Z,14.30
2022-10-01T07:15:44.288Z,14.30
2022-10-01T07:18:12.690Z,14.30
2022-10-01T07:20:41.016Z,14.40
2022-10-01T07:23:14.397Z,14.40
2022-10-01T07:25:43.375Z,14.40
2022-10-01T07:28:23.773Z,14.40
2022-10-01T07:31:02.112Z,14.40
2022-10-01T07:33:29.618Z,14.40
2022-10-01T07:36:00.165Z,14.50
2022-10-01T07:38:27.083Z,14.50
2022-10-01T07:40:54.783Z,14.50
2022-10-01T07:43:22.887Z,14.50
2022-10-01T07:45:50.303Z,14.50
2022-10-01T07:48:17.399Z,14.60
2022-10-01T07:50:45.333Z,14.60
2022-10-01T07:53:12.921Z,14.60
2022-10-01T07:55:39.977Z,14.70
2022-10-01T07:58:06.942Z,14.70
2022-10-01T08:00:35.353Z,14.70
2022-10-01T08:03:02.244Z,14.70
2022-10-01T08:05:33.732Z,14.80
2022-10-01T08:08:07.097Z,14.80
2022-10-01T08:10:36.492Z,14.80
2022-10-01T08:13:16.336Z,14.80
2022-10-01T08:15:50.456Z,14.80
2022-10-01T08:18:17.443Z,14.90
2022-10-01T08:20:44.567Z,14.90
2022-10-01T08:23:14.739Z,14.90
2022-10-01T08:25:43.570Z,14.90
2022-10-01T08:28:12.040Z,14.90
2022-10-01T08:30:41.687Z,14.90
2022-10-01T08:33:11.889Z,15.00
2022-10-01T08:35:40.987Z,15.00
2022-10-01T08:38:08.104Z,15.00
2022-10-01T08:40:42.164Z,15.10
2022-10-01T08:43:38.834Z,15.10
2022-10-01T08:46:18.381Z,15.10
2022-10-01T08:49:15.358Z,15.20
2022-10-01T08:52:01.036Z,15.20
2022-10-01T08:54:52.578Z,15.30
2022-10-01T08:57:28.841Z,15.30
2022-10-01T09:00:01.319Z,15.40
2022-10-01T09:02:32.611Z,15.50
2022-10-01T09:05:06.411Z,15.50
2022-10-01T09:08:43.521Z,15.50
2022-10-01T09:11:38.631Z,15.60
2022-10-01T09:14:43.817Z,15.70
2022-10-01T09:17:23.754Z,15.70
2022-10-01T09:20:32.808Z,15.70
2022-10-01T09:23:22.982Z,15.70
2022-10-01T09:25:51.359Z,15.80
2022-10-01T09:28:27.285Z,15.80
2022-10-01T09:31:00.556Z,15.90
2022-10-01T09:33:38.201Z,15.90
2022-10-01T09:36:37.063Z,15.90
2022-10-01T09:39:30.254Z,15.90
2022-10-01T09:41:57.609Z,16.00
2022-10-01T09:44:30.994Z,16.00
2022-10-01T09:46:58.107Z,16.00
2022-10-01T09:49:39.655Z,16.00
2022-10-01T09:52:18.682Z,16.00
2022-10-01T09:55:08.071Z,16.10
2022-10-01T09:57:46.277Z,16.10
2022-10-01T10:00:24.181Z,16.10
2022-10-01T10:02:54.371Z,16.20
2022-10-01T10:05:25.770Z,16.20
2022-10-01T10:08:00.027Z,16.20
2022-10-01T10:10:35.623Z,16.30
2022-10-01T10:13:39.167Z,16.30
2022-10-01T10:16:10.526Z,16.30
2022-10-01T10:18:39.953Z,16.30
2022-10-01T10:21:16.355Z,16.40
2022-10-01T10:23:53.362Z,16.40
2022-10-01T10:26:35.403Z,16.40
2022-10-01T10:29:05.286Z,16.50
2022-10-01T10:31:44.729Z,16.50
2022-10-01T10:34:17.675Z,16.50
2022-10-01T10:36:46.739Z,16.50
2022-10-01T10:39:31.585Z,16.50
2022-10-01T10:42:01.041Z,16.60
2022-10-01T10:44:36.204Z,16.60
2022-10-01T10:47:13.633Z,16.60
2022-10-01T10:49:56.390Z,16.60
2022-10-01T10:52:33.858Z,16.70
2022-10-01T10:55:23.703Z,16.70
2022-10-01T10:57:55.621Z,16.80
2022-10-01T11:00:26.286Z,16.90
2022-10-01T11:03:04.880Z,16.90
2022-10-01T11:05:41.381Z,17.10
2022-10-01T11:08:18.772Z,17.20
2022-10-01T11:11:27.679Z,17.30
2022-10-01T11:14:18.089Z,17.40
2022-10-01T11:17:19.291Z,17.50
2022-10-01T11:20:12.619Z,17.60
2022-10-01T11:23:07.851Z,17.70
2022-10-01T11:26:23.807Z,17.80
2022-10-01T11:29:15.039Z,17.90
2022-10-01T11:32:10.104Z,17.90
2022-10-01T11:35:18.546Z,18.00
2022-10-01T11:38:00.411Z,18.00
2022-10-01T11:40:44.732Z,18.10
2022-10-01T11:43:31.102Z,18.20
2022-10-01T11:46:13.953Z,18.30
2022-10-01T11:48:51.066Z,18.30
2022-10-01T11:51:29.035Z,18.50
2022-10-01T11:54:04.303Z,18.50
2022-10-01T11:56:59.185Z,18.60
2022-10-01T11:59:50.209Z,18.70
2022-10-01T12:02:35.634Z,18.80
2022-10-01T12:05:31.837Z,18.90
2022-10-01T12:08:21.072Z,19.10
2022-10-01T12:10:55.014Z,19.20
2022-10-01T12:13:36.557Z,19.30
2022-10-01T12:16:46.069Z,19.30
2022-10-01T12:19:26.487Z,19.40
2022-10-01T12:22:24.579Z,19.50
2022-10-01T12:24:53.476Z,19.50
2022-10-01T12:27:59.735Z,19.50
2022-10-01T12:30:42.218Z,19.60
2022-10-01T12:33:36.007Z,19.50
2022-10-01T12:36:38.456Z,19.50
2022-10-01T12:39:38.973Z,19.50
2022-10-01T12:42:20.746Z,19.50
2022-10-01T12:45:28.848Z,19.50
2022-10-01T12:48:18.986Z,19.50
2022-10-01T12:51:19.782Z,19.40
2022-10-01T12:54:45.659Z,19.40
2022-10-01T12:57:45.139Z,19.40
2022-10-01T13:00:24.793Z,19.40
2022-10-01T13:03:06.589Z,19.40
2022-10-01T13:05:44.244Z,19.40
2022-10-01T13:08:17.391Z,19.40
2022-10-01T13:11:27.752Z,19.30
2022-10-01T13:13:57.438Z,19.40
2022-10-01T13:16:58.639Z,19.30
2022-10-01T13:20:06.509Z,19.30
2022-10-01T13:23:05.154Z,19.30
2022-10-01T13:26:05.996Z,19.30
2022-10-01T13:29:14.049Z,19.30
2022-10-01T13:32:25.621Z,19.30
2022-10-01T13:34:53.502Z,19.30
2022-10-01T13:37:39.783Z,19.30
2022-10-01T13:40:34.683Z,19.30
2022-10-01T13:43:15.077Z,19.40
2022-10-01T13:45:46.826Z,19.50
2022-10-01T13:48:29.154Z,19.50
2022-10-01T13:51:10.626Z,19.60
2022-10-01T13:53:43.449Z,19.60
2022-10-01T13:56:14.477Z,19.70
2022-10-01T13:58:46.392Z,19.80
2022-10-01T14:01:21.358Z,19.80
2022-10-01T14:04:37.742Z,19.80
2022-10-01T14:07:21.945Z,19.90
2022-10-01T14:09:58.375Z,20.00
2022-10-01T14:12:51.976Z,20.00
2022-10-01T14:16:02.627Z,20.00
2022-10-01T14:18:44.137Z,20.10
2022-10-01T14:21:29.371Z,20.20
2022-10-01T14:24:30.955Z,20.20
2022-10-01T14:27:29.156Z,20.20
2022-10-01T14:30:10.416Z,20.30
2022-10-01T14:33:01.742Z,20.40
2022-10-01T14:35:45.094Z,20.40
2022-10-01T14:38:21.239Z,20.40
2022-10-01T14:40:51.177Z,20.40
2022-10-01T14:43:29.610Z,20.40
2022-10-01T14:46:06.068Z,20.40
2022-10-01T14:48:37.752Z,20.50
2022-10-01T14:51:20.992Z,20.50
2022-10-01T14:53:48.304Z,20.50
2022-10-01T14:56:16.373Z,20.50
2022-10-01T14:58:52.156Z,20.60
2022-10-01T15:01:24.526Z,20.60
2022-10-01T15:03:52.469Z,20.50
2022-10-01T15:06:24.230Z,20.40
2022-10-01T15:08:54.867Z,20.30
2022-10-01T15:11:28.898Z,20.10
2022-10-01T15:14:04.942Z,20.00
2022-10-01T15:16:33.410Z,19.90
2022-10-01T15:19:06.430Z,19.70
2022-10-01T15:21:41.460Z,19.60
2022-10-01T15:24:41.084Z,19.40
2022-10-01T15:27:14.463Z,19.30
2022-10-01T15:29:44.174Z,19.20
2022-10-01T15:32:18.604Z,19.10
2022-10-01T15:34:54.739Z,19.00
2022-10-01T15:37:49.337Z,18.90
2022-10-01T15:40:34.518Z,18.90
2022-10-01T15:43:07.604Z,18.90
2022-10-01T15:45:35.668Z,18.80
2022-10-01T15:48:02.835Z,18.80
2022-10-01T15:50:41.658Z,18.80
2022-10-01T15:53:22.425Z,18.70
2022-10-01T15:55:53.123Z,18.70
2022-10-01T15:58:28.071Z,18.60
2022-10-01T16:01:09.201Z,18.60
2022-10-01T16:03:50.433Z,18.50
2022-10-01T16:06:36.170Z,18.50
2022-10-01T16:09:32.439Z,18.40
2022-10-01T16:12:03.934Z,18.40
2022-10-01T16:14:57.200Z,18.30
2022-10-01T16:17:37.224Z,18.30
2022-10-01T16:20:16.204Z,18.30
2022-10-01T16:22:43.620Z,18.20
2022-10-01T16:25:19.559Z,18.20
2022-10-01T16:27:57.673Z,18.10
2022-10-01T16:30:29.611Z,18.10
2022-10-01T16:32:59.799Z,18.10
2022-10-01T16:35:29.291Z,18.00
2022-10-01T16:37:58.018Z,18.00
2022-10-01T16:40:32.255Z,18.00
2022-10-01T16:43:00.316Z,17.90
2022-10-01T16:45:34.582Z,17.90
2022-10-01T16:48:02.712Z,17.90
2022-10-01T16:50:29.987Z,17.90
2022-10-01T16:53:01.103Z,17.80
2022-10-01T16:55:36.458Z,17.80
2022-10-01T16:58:05.186Z,17.80
2022-10-01T17:00:33.402Z,17.70
2022-10-01T17:03:00.532Z,17.70
2022-10-01T17:05:37.466Z,17.60
2022-10-01T17:08:10.905Z,17.60
2022-10-01T17:10:48.126Z,17.50
2022-10-01T17:13:16.042Z,17.50
2022-10-01T17:15:43.561Z,17.40
2022-10-01T17:18:10.542Z,17.30
2022-10-01T17:20:40.769Z,17.30
2022-10-01T17:23:09.897Z,17.20
2022-10-01T17:25:38.361Z,17.20
2022-10-01T17:28:11.016Z,17.10
2022-10-01T17:30:43.506Z,17.10
2022-10-01T17:33:13.708Z,17.00
2022-10-01T17:35:43.537Z,17.00
2022-10-01T17:38:12.209Z,16.90
2022-10-01T17:40:44.985Z,16.90
2022-10-01T17:43:14.826Z,16.80
2022-10-01T17:45:43.218Z,16.80
2022-10-01T17:48:10.440Z,16.80
2022-10-01T17:50:43.409Z,16.70
2022-10-01T17:53:12.225Z,16.70
2022-10-01T17:55:42.786Z,16.60
2022-10-01T17:58:10.237Z,16.60
2022-10-01T18:00:40.583Z,16.50
2022-10-01T18:03:07.597Z,16.50
2022-10-01T18:05:34.597Z,16.40
2022-10-01T18:08:01.906Z,16.40
2022-10-01T18:10:28.791Z,16.30
2022-10-01T18:12:58.050Z,16.30
2022-10-01T18:15:24.882Z,16.20
2022-10-01T18:18:48.557Z,16.20
2022-10-01T18:20:40.445Z,16.10
2022-10-01T18:23:08.057Z,16.00
2022-10-01T18:25:34.890Z,16.00
2022-10-01T18:28:02.062Z,15.90
2022-10-01T18:30:29.327Z,15.90
2022-10-01T18:32:57.211Z,15.80
2022-10-01T18:35:34.403Z,15.80
2022-10-01T18:38:27.736Z,15.70
2022-10-01T18:41:08.442Z,15.70
2022-10-01T18:43:40.262Z,15.60
2022-10-01T18:46:41.071Z,15.50
2022-10-01T18:49:34.679Z,15.50
2022-10-01T18:52:07.995Z,15.50
2022-10-01T18:55:02.520Z,15.40
2022-10-01T18:58:07.861Z,15.40
2022-10-01T19:01:05.319Z,15.40
2022-10-01T19:03:41.402Z,15.40
2022-10-01T19:06:27.169Z,15.40
2022-10-01T19:09:27.946Z,15.40
2022-10-01T19:12:19.887Z,15.30
2022-10-01T19:15:36.259Z,15.30
2022-10-01T19:18:31.907Z,15.20
2022-10-01T19:21:33.538Z,15.20
2022-10-01T19:24:21.818Z,15.20
2022-10-01T19:26:57.637Z,15.20
2022-10-01T19:29:39.156Z,15.20
2022-10-01T19:32:28.534Z,15.10
2022-10-01T19:35:05.489Z,15.10
2022-10-01T19:37:41.086Z,15.10
2022-10-01T19:40:38.922Z,15.00
2022-10-01T19:43:29.614Z,15.00
2022-10-01T19:46:39.289Z,15.00
2022-10-01T19:49:09.621Z,14.90
2022-10-01T19:51:55.429Z,14.90
2022-10-01T19:54:30.258Z,14.90
2022-10-01T19:57:24.900Z,14.80
2022-10-01T19:59:57.800Z,14.80
2022-10-01T20:02:46.933Z,14.80
2022-10-01T20:05:43.934Z,14.70
2022-10-01T20:08:44.443Z,14.70
2022-10-01T20:11:21.528Z,14.70
2022-10-01T20:14:06.468Z,14.60
2022-10-01T20:16:40.755Z,14.60
2022-10-01T20:19:52.112Z,14.50
2022-10-01T20:22:36.443Z,14.40
2022-10-01T20:25:24.067Z,14.40
2022-10-01T20:28:19.180Z,14.40
2022-10-01T20:31:27.428Z,14.30
2022-10-01T20:34:44.313Z,14.20
2022-10-01T20:37:39.069Z,14.20
2022-10-01T20:40:24.817Z,14.10
2022-10-01T20:43:05.692Z,14.10
2022-10-01T20:45:35.413Z,14.10
2022-10-01T20:48:37.215Z,14.00
2022-10-01T20:51:14.773Z,14.00
2022-10-01T20:54:00.463Z,13.90
2022-10-01T20:56:44.258Z,13.90
2022-10-01T20:59:27.360Z,13.90
2022-10-01T21:02:02.902Z,13.80
2022-10-01T21:04:40.327Z,13.80
2022-10-01T21:07:36.316Z,13.70
2022-10-01T21:10:22.035Z,13.70
2022-10-01T21:13:20.946Z,13.70
2022-10-01T21:16:08.158Z,13.60
2022-10-01T21:19:22.341Z,13.60
2022-10-01T21:21:57.056Z,13.60
2022-10-01T21:25:20.978Z,13.50
2022-10-01T21:28:23.505Z,13.50
2022-10-01T21:31:44.880Z,13.40
2022-10-01T21:35:17.902Z,13.30
2022-10-01T21:38:03.626Z,13.30
2022-10-01T21:41:04.306Z,13.30
2022-10-01T21:43:56.671Z,13.20
2022-10-01T21:46:37.823Z,13.20
2022-10-01T21:49:44.220Z,13.10
2022-10-01T21:52:25.937Z,13.10
2022-10-01T21:55:49.548Z,13.00
2022-10-01T21:58:59.693Z,13.00
2022-10-01T22:01:54.251Z,12.90
2022-10-01T22:04:47.694Z,12.90
2022-10-01T22:07:54.005Z,12.80
2022-10-01T22:10:33.442Z,12.80
2022-10-01T22:13:09.418Z,12.80
2022-10-01T22:15:40.844Z,12.70
2022-10-01T22:18:18.184Z,12.70
2022-10-01T22:20:47.620Z,12.70
2022-10-01T22:23:18.745Z,12.60
2022-10-01T22:25:58.303Z,12.60
2022-10-01T22:28:37.158Z,12.60
2022-10-01T22:31:12.372Z,12.60
2022-10-01T22:34:05.828Z,12.60
2022-10-01T22:36:52.622Z,12.60
2022-10-01T22:39:28.644Z,12.60
2022-10-01T22:42:10.006Z,12.50
2022-10-01T22:44:37.420Z,12.60
2022-10-01T22:47:58.929Z,12.50
2022-10-01T22:51:00.389Z,12.50
2022-10-01T22:53:52.152Z,12.50
2022-10-01T22:56:32.884Z,12.50
2022-10-01T22:59:19.550Z,12.50
2022-10-01T23:02:17.383Z,12.50
2022-10-01T23:05:01.106Z,12.60
2022-10-01T23:08:06.251Z,12.50
2022-10-01T23:10:45.944Z,12.60
2022-10-01T23:13:25.984Z,12.60
2022-10-01T23:16:24.933Z,12.60
2022-10-01T23:19:41.385Z,12.60
2022-10-01T23:22:48.717Z,12.60
2022-10-01T23:25:23.808Z,12.60
2022-10-01T23:28:38.970Z,12.60
2022-10-01T23:31:31.121Z,12.60
2022-10-01T23:34:29.196Z,12.60
2022-10-01T23:37:21.494Z,12.70
2022-10-01T23:39:58.793Z,12.70
2022-10-01T23:43:00.749Z,12.70
2022-10-01T23:45:48.146Z,12.70
2022-10-01T23:48:26.298Z,12.80
2022-10-01T23:51:22.984Z,12.80
2022-10-01T23:54:06.988Z,12.90
2022-10-01T23:56:49.780Z,13.00
2022-10-01T23:59:32.189Z,13.10
